Time,TemperatureF,DewpointF,PressureIn,WindDirection,WindDirectionDegrees,WindSpeedMPH,WindSpeedGustMPH,Humidity,HourlyPrecipIn,Conditions,Clouds,dailyrainin,SoftwareType,DateUTC
2013-11-26 00:05:00,30.3,27.2,30.32,North,360,0.0,0.0,88,0.00,,,0.00,Wunderground v.1.15,2013-11-26 05:05:00,
2013-11-26 00:10:00,30.3,26.9,30.32,North,32767,0.0,0.0,87,0.00,,,0.00,Wunderground v.1.15,2013-11-26 05:10:00,
2013-11-26 00:15:00,30.2,27.1,30.31,North,32767,0.0,0.0,88,0.00,,,0.00,Wunderground v.1.15,2013-11-26 05:15:00,
2013-11-26 00:25:00,30.2,27.6,30.31,North,32767,0.0,0.0,90,0.00,,,0.00,Wunderground v.1.15,2013-11-26 05:25:00,
2013-11-26 00:34:00,30.1,27.8,30.30,North,360,0.0,0.0,91,0.00,,,0.00,Wunderground v.1.15,2013-11-26 05:34:00,
2013-11-26 00:45:00,29.9,27.9,30.29,North,360,0.0,0.0,92,0.00,,,0.00,Wunderground v.1.15,2013-11-26 05:45:00,
2013-11-26 00:55:00,30.0,28.2,30.29,North,32767,0.0,0.0,93,0.00,,,0.00,Wunderground v.1.15,2013-11-26 05:55:00,
2013-11-26 01:05:00,30.0,28.5,30.29,North,360,0.0,0.0,94,0.00,,,0.00,Wunderground v.1.15,2013-11-26 06:05:00,
2013-11-26 01:10:00,30.1,28.6,30.28,North,32767,0.0,0.0,94,0.00,,,0.00,Wunderground v.1.15,2013-11-26 06:10:00,
2013-11-26 01:20:00,30.0,28.7,30.28,North,360,0.0,0.0,95,0.00,,,0.00,Wunderground v.1.15,2013-11-26 06:20:00,
2013-11-26 01:29:00,30.3,29.3,30.28,North,32767,0.0,0.0,96,0.00,,,0.00,Wunderground v.1.15,2013-11-26 06:29:00,
2013-11-26 01:35:00,30.4,29.4,30.28,North,32767,0.0,0.0,96,0.00,,,0.00,Wunderground v.1.15,2013-11-26 06:35:00,
2013-11-26 01:45:00,30.6,29.6,30.27,North,32767,0.0,0.0,96,0.00,,,0.00,Wunderground v.1.15,2013-11-26 06:45:00,
2013-11-26 01:50:00,30.7,29.7,30.27,North,360,0.0,0.0,96,0.00,,,0.00,Wunderground v.1.15,2013-11-26 06:50:00,
2013-11-26 01:55:00,30.9,29.9,30.27,North,32767,0.0,0.0,96,0.00,,,0.00,Wunderground v.1.15,2013-11-26 06:55:00,
2013-11-26 02:00:00,31.0,30.0,30.27,North,32767,0.0,0.0,96,0.00,,,0.00,Wunderground v.1.15,2013-11-26 07:00:00,
2013-11-26 02:05:00,31.2,30.2,30.27,North,32767,0.0,0.0,96,0.00,,,0.00,Wunderground v.1.15,2013-11-26 07:05:00,
2013-11-26 02:15:00,31.3,30.3,30.27,North,32767,0.0,0.0,96,0.00,,,0.00,Wunderground v.1.15,2013-11-26 07:15:00,
2013-11-26 02:20:00,31.2,30.4,30.26,North,360,0.0,0.0,97,0.00,,,0.00,Wunderground v.1.15,2013-11-26 07:20:00,
2013-11-26 02:25:00,31.3,30.5,30.26,North,32767,0.0,0.0,97,0.00,,,0.00,Wunderground v.1.15,2013-11-26 07:25:00,
2013-11-26 02:30:00,31.4,30.6,30.26,North,32767,0.0,0.0,97,0.00,,,0.00,Wunderground v.1.15,2013-11-26 07:30:00,
2013-11-26 02:35:00,31.6,30.8,30.26,North,32767,0.0,0.0,97,0.00,,,0.00,Wunderground v.1.15,2013-11-26 07:35:00,
2013-11-26 02:45:00,31.8,31.0,30.26,North,32767,0.0,0.0,97,0.00,,,0.00,Wunderground v.1.15,2013-11-26 07:45:00,
2013-11-26 02:54:00,31.9,31.1,30.26,North,32767,0.0,0.0,97,0.00,,,0.00,Wunderground v.1.15,2013-11-26 07:54:00,
2013-11-26 02:59:00,32.0,31.2,30.25,North,360,0.0,0.0,97,0.00,,,0.00,Wunderground v.1.15,2013-11-26 07:59:00,
2013-11-26 03:05:00,32.2,31.4,30.26,North,32767,0.0,0.0,97,0.00,,,0.00,Wunderground v.1.15,2013-11-26 08:05:00,
2013-11-26 03:14:00,32.5,32.0,30.26,North,32767,0.0,0.0,98,0.00,,,0.00,Wunderground v.1.15,2013-11-26 08:14:00,
2013-11-26 03:20:00,32.6,32.1,30.26,North,32767,0.0,0.0,98,0.00,,,0.00,Wunderground v.1.15,2013-11-26 08:20:00,
2013-11-26 03:30:00,32.7,32.2,30.27,North,32767,0.0,0.0,98,0.00,,,0.00,Wunderground v.1.15,2013-11-26 08:30:00,
2013-11-26 03:40:00,32.7,32.2,30.27,North,32767,0.0,0.0,98,0.00,,,0.00,Wunderground v.1.15,2013-11-26 08:40:00,
2013-11-26 03:49:00,33.1,32.6,30.26,North,32767,0.0,0.0,98,0.00,,,0.00,Wunderground v.1.15,2013-11-26 08:49:00,
2013-11-26 03:54:00,33.5,33.0,30.26,North,32767,0.0,0.0,98,0.00,,,0.00,Wunderground v.1.15,2013-11-26 08:54:00,
2013-11-26 04:00:00,34.1,33.6,30.26,North,32767,0.0,0.0,98,0.00,,,0.00,Wunderground v.1.15,2013-11-26 09:00:00,
2013-11-26 04:05:00,34.6,34.1,30.25,North,32767,0.0,0.0,98,0.00,,,0.00,Wunderground v.1.15,2013-11-26 09:05:00,
2013-11-26 04:15:00,35.4,34.9,30.25,North,360,0.0,0.0,98,0.00,,,0.00,Wunderground v.1.15,2013-11-26 09:15:00,
2013-11-26 04:25:00,36.0,35.5,30.24,North,32767,0.0,0.0,98,0.00,,,0.00,Wunderground v.1.15,2013-11-26 09:25:00,
2013-11-26 04:35:00,36.6,36.1,30.23,North,32767,0.0,0.0,98,0.00,,,0.00,Wunderground v.1.15,2013-11-26 09:35:00,
2013-11-26 04:44:00,36.8,36.3,30.22,North,360,0.0,0.0,98,0.00,,,0.00,Wunderground v.1.15,2013-11-26 09:44:00,
2013-11-26 04:50:00,36.9,36.4,30.22,North,360,0.0,0.0,98,0.00,,,0.00,Wunderground v.1.15,2013-11-26 09:50:00,
2013-11-26 05:00:00,37.1,36.6,30.22,North,360,0.0,0.0,98,0.00,,,0.01,Wunderground v.1.15,2013-11-26 10:00:00,
2013-11-26 05:05:00,37.1,36.6,30.21,North,32767,0.0,0.0,98,0.00,,,0.01,Wunderground v.1.15,2013-11-26 10:05:00,
2013-11-26 05:15:00,37.0,36.5,30.21,North,32767,0.0,0.0,98,0.00,,,0.01,Wunderground v.1.15,2013-11-26 10:15:00,
2013-11-26 05:24:00,36.9,36.4,30.19,North,32767,0.0,0.0,98,0.00,,,0.01,Wunderground v.1.15,2013-11-26 10:24:00,
2013-11-26 05:35:00,36.8,36.3,30.20,North,32767,0.0,0.0,98,0.00,,,0.01,Wunderground v.1.15,2013-11-26 10:35:00,
2013-11-26 05:45:00,36.4,35.9,30.20,North,32767,0.0,0.0,98,0.75,,,0.25,Wunderground v.1.15,2013-11-26 10:45:00,
2013-11-26 05:55:00,36.0,35.5,30.19,North,32767,0.0,0.0,98,0.18,,,0.27,Wunderground v.1.15,2013-11-26 10:55:00,
2013-11-26 06:05:00,35.8,35.3,30.19,North,32767,0.0,0.0,98,0.19,,,0.31,Wunderground v.1.15,2013-11-26 11:05:00,
2013-11-26 06:15:00,35.7,35.2,30.17,North,32767,0.0,0.0,98,0.23,,,0.35,Wunderground v.1.15,2013-11-26 11:15:00,
2013-11-26 06:25:00,35.9,35.4,30.16,North,32767,0.0,0.0,98,0.17,,,0.38,Wunderground v.1.15,2013-11-26 11:25:00,
2013-11-26 06:35:00,36.1,35.6,30.16,North,32767,0.0,0.0,98,0.10,,,0.40,Wunderground v.1.15,2013-11-26 11:35:00,
2013-11-26 06:45:00,36.6,36.1,30.15,North,32767,0.0,0.0,98,0.11,,,0.42,Wunderground v.1.15,2013-11-26 11:45:00,
2013-11-26 06:54:00,36.6,36.1,30.16,North,32767,0.0,0.0,98,0.14,,,0.44,Wunderground v.1.15,2013-11-26 11:54:00,
2013-11-26 07:05:00,36.2,35.7,30.16,North,360,0.0,0.0,98,0.20,,,0.48,Wunderground v.1.15,2013-11-26 12:05:00,
2013-11-26 07:15:00,36.0,35.5,30.16,North,360,0.0,0.0,98,0.37,,,0.52,Wunderground v.1.15,2013-11-26 12:15:00,
2013-11-26 07:25:00,35.9,35.4,30.16,North,32767,0.0,0.0,98,0.19,,,0.55,Wunderground v.1.15,2013-11-26 12:25:00,
2013-11-26 07:34:00,36.0,35.5,30.15,North,32767,0.0,0.0,98,0.21,,,0.58,Wunderground v.1.15,2013-11-26 12:34:00,
2013-11-26 07:45:00,36.4,36.1,30.15,North,32767,0.0,0.0,99,0.12,,,0.61,Wunderground v.1.15,2013-11-26 12:45:00,
2013-11-26 07:55:00,36.6,36.3,30.13,North,32767,0.0,0.0,99,0.12,,,0.63,Wunderground v.1.15,2013-11-26 12:55:00,
2013-11-26 08:05:00,36.8,36.5,30.12,North,32767,0.0,0.0,99,0.17,,,0.66,Wunderground v.1.15,2013-11-26 13:05:00,
2013-11-26 08:15:00,37.0,36.7,30.11,North,32767,0.0,0.0,99,0.22,,,0.70,Wunderground v.1.15,2013-11-26 13:15:00,
2013-11-26 08:24:00,37.3,37.0,30.09,North,360,0.0,0.0,99,0.18,,,0.72,Wunderground v.1.15,2013-11-26 13:24:00,
2013-11-26 08:30:00,37.4,37.1,30.09,North,360,0.0,0.0,99,0.09,,,0.73,Wunderground v.1.15,2013-11-26 13:30:00,
2013-11-26 08:35:00,37.5,37.2,30.08,North,32767,0.0,0.0,99,0.10,,,0.74,Wunderground v.1.15,2013-11-26 13:35:00,
2013-11-26 08:45:00,36.7,36.2,30.08,North,32767,0.0,0.0,98,0.06,,,0.74,Wunderground v.1.15,2013-11-26 13:45:00,
2013-11-26 08:55:00,35.9,35.4,30.08,North,360,0.0,0.0,98,0.04,,,0.75,Wunderground v.1.15,2013-11-26 13:55:00,
2013-11-26 09:05:00,35.5,35.0,30.07,North,32767,0.0,0.0,98,0.05,,,0.76,Wunderground v.1.15,2013-11-26 14:05:00,
2013-11-26 09:15:00,35.7,35.2,30.07,North,360,0.0,0.0,98,0.05,,,0.76,Wunderground v.1.15,2013-11-26 14:15:00,
2013-11-26 09:25:00,35.5,35.2,30.06,North,360,0.0,0.0,99,0.00,,,0.77,Wunderground v.1.15,2013-11-26 14:25:00,
2013-11-26 09:35:00,35.6,35.1,30.06,North,32767,0.0,0.0,98,0.00,,,0.77,Wunderground v.1.15,2013-11-26 14:35:00,
2013-11-26 09:40:00,35.7,35.4,30.06,North,360,0.0,0.0,99,0.04,,,0.78,Wunderground v.1.15,2013-11-26 14:40:00,
2013-11-26 09:50:00,35.7,35.4,30.07,North,360,0.0,0.0,99,0.06,,,0.79,Wunderground v.1.15,2013-11-26 14:50:00,
2013-11-26 10:00:00,35.9,35.6,30.07,North,32767,0.0,0.0,99,0.07,,,0.80,Wunderground v.1.15,2013-11-26 15:00:00,
2013-11-26 10:05:00,36.0,35.7,30.06,North,32767,0.0,0.0,99,0.10,,,0.81,Wunderground v.1.15,2013-11-26 15:05:00,
2013-11-26 10:15:00,36.3,36.0,30.05,North,32767,0.0,0.0,99,0.09,,,0.83,Wunderground v.1.15,2013-11-26 15:15:00,
2013-11-26 10:24:00,36.8,36.5,30.05,North,360,0.0,0.0,99,0.10,,,0.84,Wunderground v.1.15,2013-11-26 15:24:00,
2013-11-26 10:34:00,37.2,36.9,30.04,North,360,0.0,0.0,99,0.18,,,0.86,Wunderground v.1.15,2013-11-26 15:34:00,
2013-11-26 10:40:00,37.4,37.1,30.04,North,360,0.0,0.0,99,0.10,,,0.87,Wunderground v.1.15,2013-11-26 15:40:00,
2013-11-26 10:50:00,37.7,37.4,30.03,North,32767,0.0,0.0,99,0.10,,,0.88,Wunderground v.1.15,2013-11-26 15:50:00,
2013-11-26 10:59:00,38.0,37.7,30.03,North,32767,0.0,0.0,99,0.11,,,0.90,Wunderground v.1.15,2013-11-26 15:59:00,
2013-11-26 11:05:00,38.0,37.7,30.03,North,32767,0.0,0.0,99,0.08,,,0.91,Wunderground v.1.15,2013-11-26 16:05:00,
2013-11-26 11:15:00,38.1,37.8,30.03,North,32767,0.0,0.0,99,0.10,,,0.92,Wunderground v.1.15,2013-11-26 16:15:00,
2013-11-26 11:25:00,38.2,37.9,30.01,North,32767,0.0,0.0,99,0.18,,,0.94,Wunderground v.1.15,2013-11-26 16:25:00,
2013-11-26 11:35:00,38.5,38.2,30.01,North,32767,0.0,0.0,99,0.15,,,0.96,Wunderground v.1.15,2013-11-26 16:35:00,
2013-11-26 11:45:00,38.7,38.4,29.99,North,32767,0.0,0.0,99,0.18,,,0.99,Wunderground v.1.15,2013-11-26 16:45:00,
2013-11-26 11:55:00,38.8,38.5,29.98,North,32767,0.0,0.0,99,0.07,,,1.01,Wunderground v.1.15,2013-11-26 16:55:00,
2013-11-26 12:10:00,39.1,38.8,29.97,North,360,0.0,0.0,99,0.07,,,1.02,Wunderground v.1.15,2013-11-26 17:10:00,
2013-11-26 12:20:00,39.3,39.0,29.96,North,360,0.0,0.0,99,0.06,,,1.03,Wunderground v.1.15,2013-11-26 17:20:00,
2013-11-26 12:30:00,39.5,39.2,29.95,North,32767,0.0,0.0,99,0.04,,,1.04,Wunderground v.1.15,2013-11-26 17:30:00,
2013-11-26 12:40:00,39.4,39.1,29.94,North,32767,0.0,0.0,99,0.09,,,1.05,Wunderground v.1.15,2013-11-26 17:40:00,
2013-11-26 12:50:00,39.5,39.2,29.94,North,360,0.0,0.0,99,0.07,,,1.07,Wunderground v.1.15,2013-11-26 17:50:00,
2013-11-26 12:59:00,39.6,39.3,29.94,North,32767,0.0,0.0,99,0.06,,,1.07,Wunderground v.1.15,2013-11-26 17:59:00,
2013-11-26 13:05:00,39.6,39.3,29.94,North,32767,0.0,0.0,99,0.14,,,1.09,Wunderground v.1.15,2013-11-26 18:05:00,
2013-11-26 13:14:00,39.6,39.3,29.92,North,32767,0.0,0.0,99,0.21,,,1.12,Wunderground v.1.15,2013-11-26 18:14:00,
2013-11-26 13:25:00,39.7,39.4,29.91,North,32767,0.0,0.0,99,0.18,,,1.15,Wunderground v.1.15,2013-11-26 18:25:00,
2013-11-26 13:35:00,39.8,39.5,29.91,North,32767,0.0,0.0,99,0.27,,,1.18,Wunderground v.1.15,2013-11-26 18:35:00,
2013-11-26 13:45:00,39.7,39.4,29.90,North,32767,0.0,0.0,99,0.07,,,1.19,Wunderground v.1.15,2013-11-26 18:45:00,
2013-11-26 13:54:00,39.8,39.5,29.89,North,32767,0.0,0.0,99,0.23,,,1.22,Wunderground v.1.15,2013-11-26 18:54:00,
2013-11-26 14:00:00,39.8,39.5,29.89,North,360,0.0,0.0,99,0.09,,,1.22,Wunderground v.1.15,2013-11-26 19:00:00,
2013-11-26 14:05:00,40.0,39.7,29.90,North,360,0.0,0.0,99,0.05,,,1.22,Wunderground v.1.15,2013-11-26 19:05:00,
2013-11-26 14:15:00,40.1,39.8,29.90,North,360,0.0,0.0,99,0.10,,,1.24,Wunderground v.1.15,2013-11-26 19:15:00,
2013-11-26 14:25:00,39.9,39.6,29.88,North,360,0.0,0.0,99,0.14,,,1.29,Wunderground v.1.15,2013-11-26 19:25:00,
2013-11-26 14:35:00,39.8,39.5,29.87,North,32767,0.0,0.0,99,0.22,,,1.33,Wunderground v.1.15,2013-11-26 19:35:00,
2013-11-26 14:45:00,39.8,39.5,29.87,North,32767,0.0,0.0,99,0.18,,,1.37,Wunderground v.1.15,2013-11-26 19:45:00,
2013-11-26 14:55:00,39.9,39.6,29.86,North,32767,0.0,0.0,99,0.25,,,1.41,Wunderground v.1.15,2013-11-26 19:55:00,
2013-11-26 15:05:00,39.8,39.5,29.85,North,360,0.0,0.0,99,0.33,,,1.46,Wunderground v.1.15,2013-11-26 20:05:00,
2013-11-26 15:14:00,39.7,39.4,29.83,North,360,0.0,0.0,99,0.46,,,1.52,Wunderground v.1.15,2013-11-26 20:14:00,
2013-11-26 15:24:00,39.6,39.3,29.80,North,32767,0.0,0.0,99,0.39,,,1.58,Wunderground v.1.15,2013-11-26 20:24:00,
2013-11-26 15:30:00,39.7,39.7,29.80,North,32767,0.0,0.0,100,0.30,,,1.60,Wunderground v.1.15,2013-11-26 20:30:00,
2013-11-26 15:40:00,39.6,39.6,29.82,North,360,0.0,0.0,100,0.39,,,1.65,Wunderground v.1.15,2013-11-26 20:40:00,
2013-11-26 15:45:00,39.7,39.7,29.80,North,360,0.0,0.0,100,0.35,,,1.68,Wunderground v.1.15,2013-11-26 20:45:00,
2013-11-26 15:54:00,39.8,39.8,29.81,North,360,0.0,0.0,100,0.18,,,1.72,Wunderground v.1.15,2013-11-26 20:54:00,
2013-11-26 16:00:00,39.8,39.8,29.81,North,32767,0.0,0.0,100,0.16,,,1.74,Wunderground v.1.15,2013-11-26 21:00:00,
2013-11-26 16:05:00,39.8,39.8,29.81,North,32767,0.0,0.0,100,0.14,,,1.76,Wunderground v.1.15,2013-11-26 21:05:00,
2013-11-26 16:15:00,39.9,39.9,29.82,North,32767,0.0,0.0,100,0.14,,,1.78,Wunderground v.1.15,2013-11-26 21:15:00,
2013-11-26 16:25:00,39.9,39.9,29.81,North,32767,0.0,0.0,100,0.23,,,1.82,Wunderground v.1.15,2013-11-26 21:25:00,
2013-11-26 16:34:00,40.0,39.7,29.82,North,32767,0.0,0.0,99,0.09,,,1.84,Wunderground v.1.15,2013-11-26 21:34:00,
2013-11-26 16:45:00,40.0,39.7,29.81,North,32767,0.0,0.0,99,0.08,,,1.86,Wunderground v.1.15,2013-11-26 21:45:00,
2013-11-26 16:55:00,40.0,39.7,29.80,North,32767,0.0,0.0,99,0.08,,,1.88,Wunderground v.1.15,2013-11-26 21:55:00,
2013-11-26 17:05:00,40.1,39.8,29.80,North,32767,0.0,0.0,99,0.09,,,1.89,Wunderground v.1.15,2013-11-26 22:05:00,
2013-11-26 17:14:00,40.1,39.8,29.79,North,32767,0.0,0.0,99,0.08,,,1.91,Wunderground v.1.15,2013-11-26 22:14:00,
2013-11-26 17:24:00,40.1,39.8,29.79,North,32767,0.0,0.0,99,0.05,,,1.91,Wunderground v.1.15,2013-11-26 22:24:00,
2013-11-26 17:30:00,40.1,39.8,29.79,North,360,0.0,0.0,99,0.00,,,1.91,Wunderground v.1.15,2013-11-26 22:30:00,
2013-11-26 17:40:00,40.0,39.7,29.78,North,32767,0.0,0.0,99,0.11,,,1.93,Wunderground v.1.15,2013-11-26 22:40:00,
2013-11-26 17:50:00,40.0,39.7,29.78,North,360,0.0,0.0,99,0.05,,,1.93,Wunderground v.1.15,2013-11-26 22:50:00,
2013-11-26 17:59:00,40.0,39.7,29.78,North,32767,0.0,0.0,99,0.00,,,1.93,Wunderground v.1.15,2013-11-26 22:59:00,
2013-11-26 18:05:00,40.0,39.7,29.77,North,360,0.0,0.0,99,0.00,,,1.93,Wunderground v.1.15,2013-11-26 23:05:00,
2013-11-26 18:15:00,39.9,39.9,29.77,North,32767,0.0,0.0,100,0.00,,,1.94,Wunderground v.1.15,2013-11-26 23:15:00,
2013-11-26 18:25:00,39.9,39.9,29.77,North,32767,0.0,0.0,100,0.00,,,1.94,Wunderground v.1.15,2013-11-26 23:25:00,
2013-11-26 18:34:00,40.0,40.0,29.76,North,32767,0.0,0.0,100,0.00,,,1.94,Wunderground v.1.15,2013-11-26 23:34:00,
2013-11-26 18:45:00,40.1,40.1,29.76,North,32767,0.0,0.0,100,0.00,,,1.94,Wunderground v.1.15,2013-11-26 23:45:00,
2013-11-26 18:55:00,40.2,40.2,29.76,North,32767,0.0,0.0,100,0.00,,,1.94,Wunderground v.1.15,2013-11-26 23:55:00,
2013-11-26 19:05:00,40.3,40.3,29.75,North,32767,0.0,0.0,100,0.00,,,1.94,Wunderground v.1.15,2013-11-27 00:05:00,
2013-11-26 19:15:00,40.4,40.4,29.75,North,32767,0.0,0.0,100,0.00,,,1.94,Wunderground v.1.15,2013-11-27 00:15:00,
2013-11-26 19:24:00,40.5,40.5,29.75,North,32767,0.0,0.0,100,0.00,,,1.94,Wunderground v.1.15,2013-11-27 00:24:00,
2013-11-26 19:35:00,40.6,40.6,29.75,North,360,0.0,0.0,100,0.00,,,1.94,Wunderground v.1.15,2013-11-27 00:35:00,
2013-11-26 19:45:00,40.7,40.7,29.74,North,360,0.0,0.0,100,0.00,,,1.94,Wunderground v.1.15,2013-11-27 00:45:00,
2013-11-26 19:50:00,40.7,40.7,29.74,North,32767,0.0,0.0,100,0.00,,,1.94,Wunderground v.1.15,2013-11-27 00:50:00,
2013-11-26 19:59:00,40.7,40.7,29.74,North,32767,0.0,0.0,100,0.00,,,1.94,Wunderground v.1.15,2013-11-27 00:59:00,
2013-11-26 20:05:00,40.7,40.7,29.73,North,360,0.0,0.0,100,0.00,,,1.95,Wunderground v.1.15,2013-11-27 01:05:00,
2013-11-26 20:14:00,40.9,40.9,29.73,North,32767,0.0,0.0,100,0.00,,,1.95,Wunderground v.1.15,2013-11-27 01:14:00,
2013-11-26 20:20:00,41.0,41.0,29.73,North,360,0.0,0.0,100,0.00,,,1.95,Wunderground v.1.15,2013-11-27 01:20:00,
2013-11-26 20:30:00,41.2,41.2,29.71,North,360,0.0,0.0,100,0.00,,,1.95,Wunderground v.1.15,2013-11-27 01:30:00,
2013-11-26 20:39:00,41.5,41.5,29.70,North,360,0.0,0.0,100,0.00,,,1.95,Wunderground v.1.15,2013-11-27 01:39:00,
2013-11-26 20:49:00,41.6,41.6,29.70,North,32767,0.0,0.0,100,0.00,,,1.95,Wunderground v.1.15,2013-11-27 01:49:00,
2013-11-26 21:00:00,41.1,41.1,29.70,North,32767,0.0,0.0,100,0.00,,,1.95,Wunderground v.1.15,2013-11-27 02:00:00,
2013-11-26 21:05:00,41.0,41.0,29.71,North,360,0.0,0.0,100,0.00,,,1.95,Wunderground v.1.15,2013-11-27 02:05:00,
2013-11-26 21:15:00,40.7,40.7,29.71,North,32767,0.0,0.0,100,0.00,,,1.95,Wunderground v.1.15,2013-11-27 02:15:00,
2013-11-26 21:25:00,40.8,40.8,29.71,North,32767,0.0,0.0,100,0.00,,,1.96,Wunderground v.1.15,2013-11-27 02:25:00,
2013-11-26 21:30:00,40.7,40.7,29.70,North,32767,0.0,0.0,100,0.00,,,1.96,Wunderground v.1.15,2013-11-27 02:30:00,
2013-11-26 21:39:00,41.0,41.0,29.69,North,32767,0.0,0.0,100,0.04,,,1.97,Wunderground v.1.15,2013-11-27 02:39:00,
2013-11-26 21:50:00,41.0,41.0,29.70,North,32767,0.0,0.0,100,0.04,,,1.97,Wunderground v.1.15,2013-11-27 02:50:00,
2013-11-26 21:59:00,41.0,41.0,29.71,North,32767,0.0,0.0,100,0.00,,,1.97,Wunderground v.1.15,2013-11-27 02:59:00,
2013-11-26 22:05:00,41.0,41.0,29.71,North,360,0.0,0.0,100,0.00,,,1.98,Wunderground v.1.15,2013-11-27 03:05:00,
2013-11-26 22:14:00,41.0,41.0,29.70,North,360,0.0,0.0,100,0.08,,,1.99,Wunderground v.1.15,2013-11-27 03:14:00,
2013-11-26 22:20:00,41.0,41.0,29.71,North,360,0.0,0.0,100,0.07,,,1.99,Wunderground v.1.15,2013-11-27 03:20:00,
2013-11-26 22:25:00,41.0,41.0,29.72,North,32767,0.0,0.0,100,0.05,,,1.99,Wunderground v.1.15,2013-11-27 03:25:00,
2013-11-26 22:35:00,40.9,40.9,29.70,North,32767,0.0,0.0,100,0.00,,,1.99,Wunderground v.1.15,2013-11-27 03:35:00,
2013-11-26 22:40:00,40.8,40.8,29.70,North,32767,0.0,0.0,100,0.00,,,2.00,Wunderground v.1.15,2013-11-27 03:40:00,
2013-11-26 22:49:00,40.7,40.7,29.70,North,360,0.0,0.0,100,0.00,,,2.00,Wunderground v.1.15,2013-11-27 03:49:00,
2013-11-26 22:55:00,40.6,40.6,29.70,North,360,0.0,0.0,100,0.00,,,2.00,Wunderground v.1.15,2013-11-27 03:55:00,
2013-11-26 23:05:00,40.3,40.3,29.71,North,32767,0.0,0.0,100,0.00,,,2.00,Wunderground v.1.15,2013-11-27 04:05:00,
2013-11-26 23:15:00,40.1,40.1,29.70,North,32767,0.0,0.0,100,0.00,,,2.01,Wunderground v.1.15,2013-11-27 04:15:00,
2013-11-26 23:20:00,40.0,40.0,29.70,North,32767,0.0,0.0,100,0.00,,,2.01,Wunderground v.1.15,2013-11-27 04:20:00,
2013-11-26 23:30:00,39.6,39.6,29.69,North,360,0.0,0.0,100,0.00,,,2.01,Wunderground v.1.15,2013-11-27 04:30:00,
2013-11-26 23:39:00,39.3,39.3,29.70,North,32767,0.0,0.0,100,0.00,,,2.01,Wunderground v.1.15,2013-11-27 04:39:00,
2013-11-26 23:45:00,39.2,39.2,29.70,North,360,0.0,0.0,100,0.00,,,2.01,Wunderground v.1.15,2013-11-27 04:45:00,
2013-11-26 23:55:00,38.9,38.9,29.71,North,32767,0.0,0.0,100,0.00,,,2.01,Wunderground v.1.15,2013-11-27 04:55:00,